sensor_id;sensor_type;location;lat;lon;timestamp;pressure;altitude;pressure_sealevel;temperature;humidity
9423;BME280;65863;49.506;10.400;2024-01-16T00:02:18;97236.91;;;-2.13;86.58
9423;BME280;65863;49.506;10.400;2024-01-16T00:05:02;97244.41;;;-2.13;86.87
9423;BME280;65863;49.506;10.400;2024-01-16T00:07:46;97235.06;;;-2.21;86.61
9423;BME280;65863;49.506;10.400;2024-01-16T00:10:30;97246.69;;;-2.12;86.43
9423;BME280;65863;49.506;10.400;2024-01-16T00:13:14;97255.75;;;-2.05;86.52
9423;BME280;65863;49.506;10.400;2024-01-16T00:15:58;97256.25;;;-2.01;86.36
9423;BME280;65863;49.506;10.400;2024-01-16T00:18:43;97244.09;;;-2.21;86.92
9423;BME280;65863;49.506;10.400;2024-01-16T00:21:27;97252.72;;;-2.08;86.26
9423;BME280;65863;49.506;10.400;2024-01-16T00:24:11;97230.78;;;-2.28;86.66
9423;BME280;65863;49.506;10.400;2024-01-16T00:26:55;97241.84;;;-2.22;86.26
9423;BME280;65863;49.506;10.400;2024-01-16T00:29:39;97260.72;;;-2.10;86.94
9423;BME280;65863;49.506;10.400;2024-01-16T00:32:23;97258.41;;;-2.17;87.22
9423;BME280;65863;49.506;10.400;2024-01-16T00:35:07;97247.34;;;-2.22;86.80
9423;BME280;65863;49.506;10.400;2024-01-16T00:37:52;97201.88;;;-2.44;86.54
9423;BME280;65863;49.506;10.400;2024-01-16T00:40:36;97269.75;;;-2.03;86.55
9423;BME280;65863;49.506;10.400;2024-01-16T00:43:20;97257.97;;;-2.10;86.71
9423;BME280;65863;49.506;10.400;2024-01-16T00:46:04;97261.66;;;-2.13;86.71
9423;BME280;65863;49.506;10.400;2024-01-16T00:48:48;97265.38;;;-2.16;87.21
9423;BME280;65863;49.506;10.400;2024-01-16T00:51:33;97256.44;;;-2.11;86.77
9423;BME280;65863;49.506;10.400;2024-01-16T00:54:17;97260.66;;;-2.15;87.08
9423;BME280;65863;49.506;10.400;2024-01-16T00:57:01;97248.09;;;-2.22;87.02
9423;BME280;65863;49.506;10.400;2024-01-16T00:59:45;97283.13;;;-1.91;86.39
9423;BME280;65863;49.506;10.400;2024-01-16T01:02:30;97256.94;;;-2.12;86.57
9423;BME280;65863;49.506;10.400;2024-01-16T01:05:14;97193.94;;;-2.63;86.78
9423;BME280;65863;49.506;10.400;2024-01-16T01:07:58;97289.59;;;-1.94;86.87
9423;BME280;65863;49.506;10.400;2024-01-16T01:10:42;97266.97;;;-2.09;86.35
9423;BME280;65863;49.506;10.400;2024-01-16T01:13:26;97279.25;;;-2.04;86.46
9423;BME280;65863;49.506;10.400;2024-01-16T01:16:10;97275.53;;;-2.01;86.46
9423;BME280;65863;49.506;10.400;2024-01-16T01:18:54;97254.88;;;-2.17;86.55
9423;BME280;65863;49.506;10.400;2024-01-16T01:21:38;97265.13;;;-2.18;86.65
9423;BME280;65863;49.506;10.400;2024-01-16T01:24:22;97235.69;;;-2.38;86.36
9423;BME280;65863;49.506;10.400;2024-01-16T01:27:06;97281.44;;;-2.09;86.64
9423;BME280;65863;49.506;10.400;2024-01-16T01:29:50;97297.81;;;-1.99;86.65
9423;BME280;65863;49.506;10.400;2024-01-16T01:32:34;97303.03;;;-2.01;86.20
9423;BME280;65863;49.506;10.400;2024-01-16T01:35:18;97293.16;;;-2.14;86.26
9423;BME280;65863;49.506;10.400;2024-01-16T01:38:03;97295.91;;;-2.14;86.61
9423;BME280;65863;49.506;10.400;2024-01-16T01:40:47;97313.78;;;-2.03;86.45
9423;BME280;65863;49.506;10.400;2024-01-16T01:43:31;97321.22;;;-2.10;87.04
9423;BME280;65863;49.506;10.400;2024-01-16T01:46:19;97290.97;;;-2.30;86.78
9423;BME280;65863;49.506;10.400;2024-01-16T01:49:03;97262.28;;;-2.50;86.71
9423;BME280;65863;49.506;10.400;2024-01-16T01:51:48;97337.84;;;-1.98;86.52
9423;BME280;65863;49.506;10.400;2024-01-16T01:54:35;97332.22;;;-2.10;86.48
9423;BME280;65863;49.506;10.400;2024-01-16T01:57:19;97347.59;;;-1.97;86.41
9423;BME280;65863;49.506;10.400;2024-01-16T02:00:05;97331.94;;;-2.12;86.16
9423;BME280;65863;49.506;10.400;2024-01-16T02:02:56;97313.34;;;-2.22;85.76
9423;BME280;65863;49.506;10.400;2024-01-16T02:05:40;97337.16;;;-2.14;85.82
9423;BME280;65863;49.506;10.400;2024-01-16T02:08:24;97322.59;;;-2.20;86.22
9423;BME280;65863;49.506;10.400;2024-01-16T02:11:09;97348.28;;;-2.02;86.29
9423;BME280;65863;49.506;10.400;2024-01-16T02:13:53;97328.09;;;-2.20;86.32
9423;BME280;65863;49.506;10.400;2024-01-16T02:16:39;97354.00;;;-2.06;86.77
9423;BME280;65863;49.506;10.400;2024-01-16T02:19:23;97321.53;;;-2.28;86.51
9423;BME280;65863;49.506;10.400;2024-01-16T02:22:15;97351.72;;;-2.08;86.13
9423;BME280;65863;49.506;10.400;2024-01-16T02:25:00;97334.00;;;-2.27;86.40
9423;BME280;65863;49.506;10.400;2024-01-16T02:27:44;97343.34;;;-2.19;86.70
9423;BME280;65863;49.506;10.400;2024-01-16T02:30:28;97331.06;;;-2.23;86.72
9423;BME280;65863;49.506;10.400;2024-01-16T02:33:12;97342.53;;;-2.25;87.13
9423;BME280;65863;49.506;10.400;2024-01-16T02:35:56;97364.69;;;-2.14;87.16
9423;BME280;65863;49.506;10.400;2024-01-16T02:38:40;97367.63;;;-2.17;86.81
9423;BME280;65863;49.506;10.400;2024-01-16T02:41:25;97305.91;;;-2.57;86.98
9423;BME280;65863;49.506;10.400;2024-01-16T02:44:09;97342.13;;;-2.38;86.82
9423;BME280;65863;49.506;10.400;2024-01-16T02:46:53;97363.03;;;-2.26;87.28
9423;BME280;65863;49.506;10.400;2024-01-16T02:49:37;97349.94;;;-2.31;87.38
9423;BME280;65863;49.506;10.400;2024-01-16T02:52:23;97316.97;;;-2.52;87.28
9423;BME280;65863;49.506;10.400;2024-01-16T02:55:07;97372.31;;;-2.23;87.48
9423;BME280;65863;49.506;10.400;2024-01-16T02:57:52;97355.31;;;-2.43;87.29
9423;BME280;65863;49.506;10.400;2024-01-16T03:00:35;97348.44;;;-2.53;87.67
9423;BME280;65863;49.506;10.400;2024-01-16T03:03:21;97356.84;;;-2.42;87.99
9423;BME280;65863;49.506;10.400;2024-01-16T03:06:04;97336.81;;;-2.63;88.05
9423;BME280;65863;49.506;10.400;2024-01-16T03:08:48;97368.78;;;-2.45;88.05
9423;BME280;65863;49.506;10.400;2024-01-16T03:11:32;97378.22;;;-2.31;87.94
9423;BME280;65863;49.506;10.400;2024-01-16T03:14:17;97362.00;;;-2.49;88.20
9423;BME280;65863;49.506;10.400;2024-01-16T03:17:02;97349.97;;;-2.52;88.07
9423;BME280;65863;49.506;10.400;2024-01-16T03:19:47;97363.72;;;-2.52;88.18
9423;BME280;65863;49.506;10.400;2024-01-16T03:22:31;97334.00;;;-2.68;88.47
9423;BME280;65863;49.506;10.400;2024-01-16T03:25:18;97386.97;;;-2.32;88.23
9423;BME280;65863;49.506;10.400;2024-01-16T03:28:03;97362.34;;;-2.42;87.97
9423;BME280;65863;49.506;10.400;2024-01-16T03:30:47;97341.44;;;-2.54;87.78
9423;BME280;65863;49.506;10.400;2024-01-16T03:33:31;97381.72;;;-2.30;87.80
9423;BME280;65863;49.506;10.400;2024-01-16T03:36:16;97354.75;;;-2.47;88.06
9423;BME280;65863;49.506;10.400;2024-01-16T03:39:00;97355.16;;;-2.54;88.25
9423;BME280;65863;49.506;10.400;2024-01-16T03:41:44;97380.41;;;-2.35;88.42
9423;BME280;65863;49.506;10.400;2024-01-16T03:44:28;97305.97;;;-2.93;88.46
9423;BME280;65863;49.506;10.400;2024-01-16T03:47:12;97375.81;;;-2.44;88.25
9423;BME280;65863;49.506;10.400;2024-01-16T03:49:56;97372.22;;;-2.50;88.62
9423;BME280;65863;49.506;10.400;2024-01-16T03:52:40;97356.13;;;-2.57;88.72
9423;BME280;65863;49.506;10.400;2024-01-16T03:55:24;97368.25;;;-2.49;88.37
9423;BME280;65863;49.506;10.400;2024-01-16T03:58:08;97394.66;;;-2.36;88.15
9423;BME280;65863;49.506;10.400;2024-01-16T04:00:52;97302.81;;;-2.86;88.19
9423;BME280;65863;49.506;10.400;2024-01-16T04:03:37;97377.31;;;-2.43;88.32
9423;BME280;65863;49.506;10.400;2024-01-16T04:06:22;97387.44;;;-2.34;87.88
9423;BME280;65863;49.506;10.400;2024-01-16T04:09:07;97348.13;;;-2.61;88.24
9423;BME280;65863;49.506;10.400;2024-01-16T04:11:52;97374.38;;;-2.39;88.09
9423;BME280;65863;49.506;10.400;2024-01-16T04:14:36;97317.78;;;-2.87;88.26
9423;BME280;65863;49.506;10.400;2024-01-16T04:17:20;97373.47;;;-2.51;88.31
9423;BME280;65863;49.506;10.400;2024-01-16T04:20:05;97379.09;;;-2.60;88.34
9423;BME280;65863;49.506;10.400;2024-01-16T04:22:51;97368.25;;;-2.69;88.76
9423;BME280;65863;49.506;10.400;2024-01-16T04:25:35;97364.22;;;-2.68;88.32
9423;BME280;65863;49.506;10.400;2024-01-16T04:28:19;97410.91;;;-2.33;88.70
9423;BME280;65863;49.506;10.400;2024-01-16T04:31:04;97381.72;;;-2.51;88.38
9423;BME280;65863;49.506;10.400;2024-01-16T04:33:48;97384.19;;;-2.53;88.13
9423;BME280;65863;49.506;10.400;2024-01-16T04:36:32;97405.09;;;-2.40;88.18
9423;BME280;65863;49.506;10.400;2024-01-16T04:39:17;97353.94;;;-2.73;88.35
9423;BME280;65863;49.506;10.400;2024-01-16T04:42:01;97355.25;;;-2.69;88.14
9423;BME280;65863;49.506;10.400;2024-01-16T04:44:45;97422.69;;;-2.32;87.90
9423;BME280;65863;49.506;10.400;2024-01-16T04:47:29;97409.44;;;-2.34;88.30
9423;BME280;65863;49.506;10.400;2024-01-16T04:50:14;97392.50;;;-2.47;88.51
9423;BME280;65863;49.506;10.400;2024-01-16T04:52:59;97417.94;;;-2.32;88.79
9423;BME280;65863;49.506;10.400;2024-01-16T04:55:46;97389.66;;;-2.53;88.41
9423;BME280;65863;49.506;10.400;2024-01-16T04:58:29;97417.88;;;-2.37;88.53
9423;BME280;65863;49.506;10.400;2024-01-16T05:01:13;97382.38;;;-2.56;89.07
9423;BME280;65863;49.506;10.400;2024-01-16T05:03:58;97380.44;;;-2.70;88.87
9423;BME280;65863;49.506;10.400;2024-01-16T05:06:42;97391.94;;;-2.51;88.91
9423;BME280;65863;49.506;10.400;2024-01-16T05:09:26;97397.91;;;-2.53;89.08
9423;BME280;65863;49.506;10.400;2024-01-16T05:12:10;97411.34;;;-2.40;88.90
9423;BME280;65863;49.506;10.400;2024-01-16T05:14:54;97379.09;;;-2.60;89.16
9423;BME280;65863;49.506;10.400;2024-01-16T05:17:39;97367.84;;;-2.62;89.06
9423;BME280;65863;49.506;10.400;2024-01-16T05:20:23;97366.56;;;-2.61;89.00
9423;BME280;65863;49.506;10.400;2024-01-16T05:23:08;97393.25;;;-2.47;89.27
9423;BME280;65863;49.506;10.400;2024-01-16T05:25:52;97344.22;;;-2.89;89.37
9423;BME280;65863;49.506;10.400;2024-01-16T05:28:36;97382.81;;;-2.63;89.53
9423;BME280;65863;49.506;10.400;2024-01-16T05:31:19;97370.78;;;-2.66;89.67
9423;BME280;65863;49.506;10.400;2024-01-16T05:34:04;97377.56;;;-2.61;89.48
9423;BME280;65863;49.506;10.400;2024-01-16T05:36:48;97388.72;;;-2.50;89.47
9423;BME280;65863;49.506;10.400;2024-01-16T05:39:32;97368.91;;;-2.54;89.11
9423;BME280;65863;49.506;10.400;2024-01-16T05:42:16;97297.00;;;-3.08;89.01
9423;BME280;65863;49.506;10.400;2024-01-16T05:45:00;97369.56;;;-2.80;89.38
9423;BME280;65863;49.506;10.400;2024-01-16T05:47:44;97384.66;;;-2.54;89.66
9423;BME280;65863;49.506;10.400;2024-01-16T05:50:28;97391.47;;;-2.50;89.65
9423;BME280;65863;49.506;10.400;2024-01-16T05:53:13;97376.81;;;-2.62;89.94
9423;BME280;65863;49.506;10.400;2024-01-16T05:55:58;97357.34;;;-2.79;90.00
9423;BME280;65863;49.506;10.400;2024-01-16T05:58:42;97363.69;;;-2.72;89.94
9423;BME280;65863;49.506;10.400;2024-01-16T06:01:26;97390.91;;;-2.54;90.10
9423;BME280;65863;49.506;10.400;2024-01-16T06:04:11;97363.19;;;-2.71;89.97
9423;BME280;65863;49.506;10.400;2024-01-16T06:06:54;97363.00;;;-2.67;89.88
9423;BME280;65863;49.506;10.400;2024-01-16T06:09:39;97333.50;;;-2.87;89.53
9423;BME280;65863;49.506;10.400;2024-01-16T06:12:26;97342.97;;;-2.88;89.72
9423;BME280;65863;49.506;10.400;2024-01-16T06:15:10;97324.34;;;-2.99;89.83
9423;BME280;65863;49.506;10.400;2024-01-16T06:17:57;97337.63;;;-2.98;90.09
9423;BME280;65863;49.506;10.400;2024-01-16T06:20:41;97378.19;;;-2.72;90.11
9423;BME280;65863;49.506;10.400;2024-01-16T06:23:25;97353.31;;;-2.83;89.88
9423;BME280;65863;49.506;10.400;2024-01-16T06:26:09;97329.13;;;-3.15;89.98
9423;BME280;65863;49.506;10.400;2024-01-16T06:28:53;97354.47;;;-3.05;90.00
9423;BME280;65863;49.506;10.400;2024-01-16T06:31:37;97331.50;;;-3.22;90.28
9423;BME280;65863;49.506;10.400;2024-01-16T06:34:22;97352.59;;;-3.14;90.04
9423;BME280;65863;49.506;10.400;2024-01-16T06:37:06;97348.72;;;-3.22;90.41
9423;BME280;65863;49.506;10.400;2024-01-16T06:39:50;97354.44;;;-3.25;90.59
9423;BME280;65863;49.506;10.400;2024-01-16T06:42:34;97298.53;;;-3.73;90.58
9423;BME280;65863;49.506;10.400;2024-01-16T06:45:19;97340.53;;;-3.52;90.35
9423;BME280;65863;49.506;10.400;2024-01-16T06:48:03;97310.53;;;-3.70;90.32
9423;BME280;65863;49.506;10.400;2024-01-16T06:50:48;97253.50;;;-4.26;90.52
9423;BME280;65863;49.506;10.400;2024-01-16T06:53:32;97332.22;;;-3.72;90.73
9423;BME280;65863;49.506;10.400;2024-01-16T06:56:16;97366.84;;;-3.60;90.65
9423;BME280;65863;49.506;10.400;2024-01-16T06:59:00;97370.03;;;-3.61;90.45
9423;BME280;65863;49.506;10.400;2024-01-16T07:01:44;97336.47;;;-3.86;90.63
9423;BME280;65863;49.506;10.400;2024-01-16T07:04:28;97340.31;;;-3.93;90.58
9423;BME280;65863;49.506;10.400;2024-01-16T07:07:12;97368.81;;;-3.75;90.22
9423;BME280;65863;49.506;10.400;2024-01-16T07:09:55;97281.94;;;-4.38;90.31
9423;BME280;65863;49.506;10.400;2024-01-16T07:12:39;97332.56;;;-4.09;90.34
9423;BME280;65863;49.506;10.400;2024-01-16T07:15:23;97373.53;;;-3.91;90.31
9423;BME280;65863;49.506;10.400;2024-01-16T07:18:07;97346.44;;;-4.13;90.23
9423;BME280;65863;49.506;10.400;2024-01-16T07:20:51;97352.69;;;-4.12;90.11
9423;BME280;65863;49.506;10.400;2024-01-16T07:23:36;97340.56;;;-4.21;90.24
9423;BME280;65863;49.506;10.400;2024-01-16T07:26:20;97352.28;;;-4.20;89.91
9423;BME280;65863;49.506;10.400;2024-01-16T07:29:04;97347.56;;;-4.20;90.08
9423;BME280;65863;49.506;10.400;2024-01-16T07:31:48;97355.59;;;-4.16;90.09
9423;BME280;65863;49.506;10.400;2024-01-16T07:34:32;97371.31;;;-4.02;89.93
9423;BME280;65863;49.506;10.400;2024-01-16T07:37:17;97353.81;;;-4.19;89.94
9423;BME280;65863;49.506;10.400;2024-01-16T07:40:01;97396.06;;;-3.87;89.83
9423;BME280;65863;49.506;10.400;2024-01-16T07:42:45;97336.22;;;-4.27;89.71
9423;BME280;65863;49.506;10.400;2024-01-16T07:45:30;97310.28;;;-4.41;89.63
9423;BME280;65863;49.506;10.400;2024-01-16T07:48:14;97366.72;;;-3.95;89.77
9423;BME280;65863;49.506;10.400;2024-01-16T07:50:58;97367.47;;;-3.80;89.38
9423;BME280;65863;49.506;10.400;2024-01-16T07:53:42;97391.34;;;-3.71;88.74
9423;BME280;65863;49.506;10.400;2024-01-16T07:56:26;97376.53;;;-3.89;88.94
9423;BME280;65863;49.506;10.400;2024-01-16T07:59:10;97372.78;;;-3.76;88.92
9423;BME280;65863;49.506;10.400;2024-01-16T08:01:54;97390.03;;;-3.61;88.29
9423;BME280;65863;49.506;10.400;2024-01-16T08:04:38;97383.59;;;-3.58;88.02
9423;BME280;65863;49.506;10.400;2024-01-16T08:07:22;97384.72;;;-3.50;87.78
9423;BME280;65863;49.506;10.400;2024-01-16T08:10:08;97388.22;;;-3.34;87.77
9423;BME280;65863;49.506;10.400;2024-01-16T08:12:52;97342.03;;;-3.51;87.16
9423;BME280;65863;49.506;10.400;2024-01-16T08:15:36;97370.25;;;-3.20;86.45
9423;BME280;65863;49.506;10.400;2024-01-16T08:18:21;97391.03;;;-2.99;86.12
9423;BME280;65863;49.506;10.400;2024-01-16T08:21:05;97411.47;;;-2.85;86.08
9423;BME280;65863;49.506;10.400;2024-01-16T08:23:49;97422.50;;;-2.64;85.68
9423;BME280;65863;49.506;10.400;2024-01-16T08:26:33;97391.88;;;-2.92;85.73
9423;BME280;65863;49.506;10.400;2024-01-16T08:29:17;97348.22;;;-3.05;85.52
9423;BME280;65863;49.506;10.400;2024-01-16T08:32:01;97403.34;;;-2.58;85.33
9423;BME280;65863;49.506;10.400;2024-01-16T08:34:45;97406.59;;;-2.39;84.97
9423;BME280;65863;49.506;10.400;2024-01-16T08:37:30;97422.28;;;-2.04;83.57
9423;BME280;65863;49.506;10.400;2024-01-16T08:40:14;97413.06;;;-2.22;84.09
9423;BME280;65863;49.506;10.400;2024-01-16T08:42:58;97427.44;;;-1.92;83.71
9423;BME280;65863;49.506;10.400;2024-01-16T08:45:42;97419.09;;;-1.77;82.24
9423;BME280;65863;49.506;10.400;2024-01-16T08:48:26;97422.69;;;-1.91;82.28
9423;BME280;65863;49.506;10.400;2024-01-16T08:51:11;97407.69;;;-1.90;81.56
9423;BME280;65863;49.506;10.400;2024-01-16T08:53:58;97377.09;;;-2.18;82.12
9423;BME280;65863;49.506;10.400;2024-01-16T08:56:42;97368.53;;;-2.26;82.12
9423;BME280;65863;49.506;10.400;2024-01-16T08:59:26;97420.91;;;-1.94;82.40
9423;BME280;65863;49.506;10.400;2024-01-16T09:02:12;97443.66;;;-1.73;82.78
9423;BME280;65863;49.506;10.400;2024-01-16T09:04:57;97420.00;;;-1.85;82.42
9423;BME280;65863;49.506;10.400;2024-01-16T09:07:42;97433.34;;;-1.78;82.84
9423;BME280;65863;49.506;10.400;2024-01-16T09:10:26;97379.84;;;-2.18;82.53
9423;BME280;65863;49.506;10.400;2024-01-16T09:13:10;97418.97;;;-1.88;82.21
9423;BME280;65863;49.506;10.400;2024-01-16T09:19:55;97405.84;;;-1.99;82.69
9423;BME280;65863;49.506;10.400;2024-01-16T09:22:40;97399.84;;;-1.77;82.43
9423;BME280;65863;49.506;10.400;2024-01-16T09:25:24;97430.50;;;-1.37;81.50
9423;BME280;65863;49.506;10.400;2024-01-16T09:28:09;97428.34;;;-1.53;80.88
9423;BME280;65863;49.506;10.400;2024-01-16T09:30:53;97417.94;;;-1.44;80.79
9423;BME280;65863;49.506;10.400;2024-01-16T09:33:39;97436.78;;;-1.36;80.86
9423;BME280;65863;49.506;10.400;2024-01-16T09:36:23;97428.34;;;-1.27;80.73
9423;BME280;65863;49.506;10.400;2024-01-16T09:39:07;97455.88;;;-1.01;79.94
9423;BME280;65863;49.506;10.400;2024-01-16T09:41:52;97426.16;;;-1.23;79.91
9423;BME280;65863;49.506;10.400;2024-01-16T09:44:36;97440.88;;;-1.26;79.87
9423;BME280;65863;49.506;10.400;2024-01-16T09:47:20;97422.28;;;-1.58;80.37
9423;BME280;65863;49.506;10.400;2024-01-16T09:50:05;97444.94;;;-1.22;80.17
9423;BME280;65863;49.506;10.400;2024-01-16T09:52:49;97450.94;;;-1.23;79.86
9423;BME280;65863;49.506;10.400;2024-01-16T09:55:33;97469.00;;;-0.90;78.91
9423;BME280;65863;49.506;10.400;2024-01-16T09:58:19;97450.41;;;-0.63;78.34
9423;BME280;65863;49.506;10.400;2024-01-16T10:01:04;97463.13;;;-0.40;78.00
9423;BME280;65863;49.506;10.400;2024-01-16T10:03:48;97451.81;;;-0.42;77.20
9423;BME280;65863;49.506;10.400;2024-01-16T10:06:33;97470.25;;;-0.59;77.16
9423;BME280;65863;49.506;10.400;2024-01-16T10:09:18;97448.25;;;-0.48;76.89
9423;BME280;65863;49.506;10.400;2024-01-16T10:12:02;97440.25;;;-0.46;76.17
9423;BME280;65863;49.506;10.400;2024-01-16T10:14:47;97441.44;;;-0.53;76.81
9423;BME280;65863;49.506;10.400;2024-01-16T10:17:43;97451.63;;;-0.32;76.50
9423;BME280;65863;49.506;10.400;2024-01-16T10:20:34;97427.13;;;-0.13;74.95
9423;BME280;65863;49.506;10.400;2024-01-16T10:23:29;97437.34;;;-0.31;74.72
9423;BME280;65863;49.506;10.400;2024-01-16T10:26:13;97425.22;;;-0.45;74.17
9423;BME280;65863;49.506;10.400;2024-01-16T10:29:03;97422.19;;;-0.47;74.25
9423;BME280;65863;49.506;10.400;2024-01-16T10:31:47;97424.47;;;-0.45;74.52
9423;BME280;65863;49.506;10.400;2024-01-16T10:34:31;97413.72;;;-0.38;74.76
9423;BME280;65863;49.506;10.400;2024-01-16T10:37:15;97423.81;;;-0.23;74.43
9423;BME280;65863;49.506;10.400;2024-01-16T10:40:00;97387.25;;;-0.18;73.38
9423;BME280;65863;49.506;10.400;2024-01-16T10:42:57;97414.31;;;-0.22;73.15
9423;BME280;65863;49.506;10.400;2024-01-16T10:45:41;97402.06;;;-0.10;73.94
9423;BME280;65863;49.506;10.400;2024-01-16T10:48:25;97399.91;;;-0.43;72.75
9423;BME280;65863;49.506;10.400;2024-01-16T10:51:10;97422.66;;;-0.05;73.02
9423;BME280;65863;49.506;10.400;2024-01-16T10:54:03;97408.78;;;-0.22;72.67
9423;BME280;65863;49.506;10.400;2024-01-16T10:56:49;97426.59;;;-0.18;73.03
9423;BME280;65863;49.506;10.400;2024-01-16T10:59:50;97418.44;;;0.11;72.38
9423;BME280;65863;49.506;10.400;2024-01-16T11:03:25;97412.38;;;0.01;71.74
9423;BME280;65863;49.506;10.400;2024-01-16T11:06:54;97436.09;;;0.36;71.46
9423;BME280;65863;49.506;10.400;2024-01-16T11:10:17;97392.84;;;0.05;71.36
9423;BME280;65863;49.506;10.400;2024-01-16T11:13:02;97431.53;;;0.16;70.98
9423;BME280;65863;49.506;10.400;2024-01-16T11:16:23;97410.91;;;0.00;71.71
9423;BME280;65863;49.506;10.400;2024-01-16T11:19:09;97413.25;;;-0.30;72.00
9423;BME280;65863;49.506;10.400;2024-01-16T11:21:54;97408.53;;;-0.67;72.71
9423;BME280;65863;49.506;10.400;2024-01-16T11:24:38;97403.47;;;-0.75;74.31
9423;BME280;65863;49.506;10.400;2024-01-16T11:27:22;97407.09;;;-0.57;74.62
9423;BME280;65863;49.506;10.400;2024-01-16T11:30:08;97416.41;;;-0.49;73.33
9423;BME280;65863;49.506;10.400;2024-01-16T11:32:53;97427.44;;;-0.49;73.74
9423;BME280;65863;49.506;10.400;2024-01-16T11:35:37;97428.47;;;-0.46;73.59
9423;BME280;65863;49.506;10.400;2024-01-16T11:38:24;97393.38;;;-0.46;73.90
9423;BME280;65863;49.506;10.400;2024-01-16T11:41:49;97388.75;;;-0.17;74.11
9423;BME280;65863;49.506;10.400;2024-01-16T11:44:48;97394.03;;;-0.08;73.24
9423;BME280;65863;49.506;10.400;2024-01-16T11:47:34;97375.38;;;-0.30;72.21
9423;BME280;65863;49.506;10.400;2024-01-16T11:50:27;97380.81;;;-0.47;72.82
9423;BME280;65863;49.506;10.400;2024-01-16T11:56:48;97385.91;;;-0.34;74.36
9423;BME280;65863;49.506;10.400;2024-01-16T12:00:01;97370.13;;;-0.33;74.10
9423;BME280;65863;49.506;10.400;2024-01-16T12:02:56;97347.28;;;-0.40;73.41
9423;BME280;65863;49.506;10.400;2024-01-16T12:05:41;97362.66;;;-0.16;73.03
9423;BME280;65863;49.506;10.400;2024-01-16T12:08:25;97363.97;;;-0.06;73.67
9423;BME280;65863;49.506;10.400;2024-01-16T12:11:09;97368.03;;;0.16;73.46
9423;BME280;65863;49.506;10.400;2024-01-16T12:14:03;97347.91;;;-0.02;72.33
9423;BME280;65863;49.506;10.400;2024-01-16T12:16:47;97336.38;;;0.06;72.85
9423;BME280;65863;49.506;10.400;2024-01-16T12:19:31;97343.97;;;0.28;72.39
9423;BME280;65863;49.506;10.400;2024-01-16T12:22:16;97342.72;;;0.34;72.39
9423;BME280;65863;49.506;10.400;2024-01-16T12:25:02;97335.97;;;0.53;72.01
9423;BME280;65863;49.506;10.400;2024-01-16T12:27:55;97331.19;;;0.87;70.04
9423;BME280;65863;49.506;10.400;2024-01-16T12:30:40;97321.16;;;0.84;68.90
9423;BME280;65863;49.506;10.400;2024-01-16T12:33:32;97287.22;;;0.78;68.00
9423;BME280;65863;49.506;10.400;2024-01-16T12:36:16;97303.06;;;0.77;68.39
9423;BME280;65863;49.506;10.400;2024-01-16T12:39:00;97312.34;;;0.85;68.27
9423;BME280;65863;49.506;10.400;2024-01-16T12:42:22;97299.06;;;0.78;67.90
9423;BME280;65863;49.506;10.400;2024-01-16T12:45:44;97301.53;;;0.99;67.77
9423;BME280;65863;49.506;10.400;2024-01-16T12:48:29;97294.72;;;1.06;67.34
9423;BME280;65863;49.506;10.400;2024-01-16T12:51:51;97299.03;;;1.01;67.78
9423;BME280;65863;49.506;10.400;2024-01-16T12:54:35;97270.16;;;0.57;67.28
9423;BME280;65863;49.506;10.400;2024-01-16T12:57:20;97295.78;;;0.68;68.00
9423;BME280;65863;49.506;10.400;2024-01-16T13:00:23;97302.06;;;0.63;68.57
9423;BME280;65863;49.506;10.400;2024-01-16T13:03:14;97295.00;;;0.79;69.28
9423;BME280;65863;49.506;10.400;2024-01-16T13:06:36;97294.53;;;0.70;68.36
9423;BME280;65863;49.506;10.400;2024-01-16T13:09:22;97237.31;;;0.30;69.45
9423;BME280;65863;49.506;10.400;2024-01-16T13:12:43;97293.03;;;0.46;68.56
9423;BME280;65863;49.506;10.400;2024-01-16T13:15:27;97281.97;;;0.34;70.03
9423;BME280;65863;49.506;10.400;2024-01-16T13:18:34;97298.56;;;0.68;68.68
9423;BME280;65863;49.506;10.400;2024-01-16T13:21:18;97258.38;;;0.11;67.89
9423;BME280;65863;49.506;10.400;2024-01-16T13:24:03;97298.28;;;0.44;67.93
9423;BME280;65863;49.506;10.400;2024-01-16T13:26:47;97289.03;;;0.58;67.31
9423;BME280;65863;49.506;10.400;2024-01-16T13:29:31;97243.06;;;0.27;67.20
9423;BME280;65863;49.506;10.400;2024-01-16T13:32:53;97254.09;;;0.27;67.44
9423;BME280;65863;49.506;10.400;2024-01-16T13:35:41;97256.63;;;0.25;69.15
9423;BME280;65863;49.506;10.400;2024-01-16T13:39:03;97257.34;;;-0.03;68.23
9423;BME280;65863;49.506;10.400;2024-01-16T13:41:52;97264.38;;;0.09;68.55
9423;BME280;65863;49.506;10.400;2024-01-16T13:45:07;97245.03;;;-0.13;69.55
9423;BME280;65863;49.506;10.400;2024-01-16T13:47:53;97240.00;;;-0.21;70.74
9423;BME280;65863;49.506;10.400;2024-01-16T13:50:38;97223.19;;;-0.40;70.18
9423;BME280;65863;49.506;10.400;2024-01-16T13:53:22;97256.28;;;-0.34;70.47
9423;BME280;65863;49.506;10.400;2024-01-16T13:56:07;97255.50;;;-0.40;70.86
9423;BME280;65863;49.506;10.400;2024-01-16T13:59:28;97218.88;;;-0.52;71.19
9423;BME280;65863;49.506;10.400;2024-01-16T14:02:13;97242.50;;;-0.28;71.36
9423;BME280;65863;49.506;10.400;2024-01-16T14:05:10;97242.25;;;-0.19;71.35
9423;BME280;65863;49.506;10.400;2024-01-16T14:07:54;97241.50;;;-0.31;71.63
9423;BME280;65863;49.506;10.400;2024-01-16T14:10:38;97187.03;;;-0.53;71.17
9423;BME280;65863;49.506;10.400;2024-01-16T14:13:23;97237.50;;;-0.13;70.60
9423;BME280;65863;49.506;10.400;2024-01-16T14:16:07;97200.34;;;-0.35;70.68
9423;BME280;65863;49.506;10.400;2024-01-16T14:18:51;97226.44;;;-0.24;71.21
9423;BME280;65863;49.506;10.400;2024-01-16T14:21:35;97252.06;;;-0.07;71.50
9423;BME280;65863;49.506;10.400;2024-01-16T14:24:19;97242.28;;;-0.08;70.69
9423;BME280;65863;49.506;10.400;2024-01-16T14:27:03;97237.50;;;-0.07;70.25
9423;BME280;65863;49.506;10.400;2024-01-16T14:29:48;97207.13;;;-0.30;70.11
9423;BME280;65863;49.506;10.400;2024-01-16T14:32:32;97233.25;;;-0.14;70.49
9423;BME280;65863;49.506;10.400;2024-01-16T14:35:16;97233.97;;;-0.25;70.66
9423;BME280;65863;49.506;10.400;2024-01-16T14:38:01;97211.63;;;-0.44;71.21
9423;BME280;65863;49.506;10.400;2024-01-16T14:40:45;97214.88;;;-0.45;71.07
9423;BME280;65863;49.506;10.400;2024-01-16T14:43:29;97218.91;;;-0.46;71.42
9423;BME280;65863;49.506;10.400;2024-01-16T14:46:13;97215.09;;;-0.60;71.69
9423;BME280;65863;49.506;10.400;2024-01-16T14:48:59;97217.31;;;-0.64;72.04
9423;BME280;65863;49.506;10.400;2024-01-16T14:51:43;97238.34;;;-0.73;72.52
9423;BME280;65863;49.506;10.400;2024-01-16T14:54:30;97182.84;;;-1.09;72.71